Time;durP1;ratioP1;P1;durP2;ratioP2;P2;SDS_P1;SDS_P2;PMS_P1;PMS_P2;Temp;Humidity;BMP_temperature;BMP_pressure;BME280_temperature;BME280_humidity;BME280_pressure;Samples;Min_cycle;Max_cycle;Signal;HPM_P1;HPM_P2
2023/01/24 00:01:22;;;;;;;23.25;12.88;;;4.60;64.60;;;-0.53;94.77;96396.00;4982564;28;20052;-48
2023/01/24 00:03:48;;;;;;;21.65;11.98;;;4.60;64.60;;;-0.50;94.46;96393.03;4992584;28;20021;-49
2023/01/24 00:06:18;;;;;;;21.52;11.05;;;4.60;64.70;;;-0.49;94.67;96397.28;5002794;28;20037;-46
2023/01/24 00:08:47;;;;;;;21.45;11.85;;;4.60;64.70;;;-0.52;94.75;96398.44;4985107;28;20165;-48
2023/01/24 00:11:16;;;;;;;23.67;11.93;;;4.70;64.80;;;-0.52;94.56;96395.00;4968755;28;20030;-49
2023/01/24 00:13:42;;;;;;;24.63;11.95;;;4.70;64.70;;;-0.52;94.15;96405.47;4989085;28;20644;-50
2023/01/24 00:16:21;;;;;;;23.85;12.45;;;4.60;64.60;;;-0.45;94.49;96410.81;4987567;28;20036;-48
2023/01/24 00:18:50;;;;;;;21.58;11.73;;;4.70;64.70;;;-0.45;94.24;96408.22;5012559;28;20126;-46
2023/01/24 00:21:23;;;;;;;21.17;11.77;;;4.60;65.40;;;-0.55;94.44;96406.63;5001678;28;20369;-47
2023/01/24 00:23:53;;;;;;;;;;;4.70;64.70;;;-0.49;95.07;96407.75;4995799;28;20546;-48
2023/01/24 00:26:23;;;;;;;20.42;11.45;;;4.70;64.70;;;-0.48;94.32;96406.75;4995149;28;20437;-49
2023/01/24 00:28:49;;;;;;;20.40;12.23;;;4.60;64.70;;;-0.47;94.68;96418.84;5003362;28;20036;-47
2023/01/24 00:31:21;;;;;;;24.48;13.02;;;4.70;64.70;;;-0.48;95.01;96432.91;4960211;28;20117;-47
2023/01/24 00:34:05;;;;;;;19.63;11.07;;;4.70;64.70;;;-0.42;94.29;96420.94;4998362;28;20030;-47
2023/01/24 00:36:34;;;;;;;23.45;11.88;;;4.70;64.80;;;-0.46;94.99;96417.88;4975770;28;20021;-49
2023/01/24 00:39:04;;;;;;;22.90;11.95;;;4.70;64.70;;;-0.49;94.78;96419.03;5000398;28;20557;-50
2023/01/24 00:41:30;;;;;;;23.55;11.63;;;4.70;64.70;;;-0.44;94.67;96415.06;5011814;28;20036;-46
2023/01/24 00:43:55;;;;;;;21.83;11.30;;;4.70;64.70;;;-0.49;94.66;96424.25;4981848;28;20127;-48
2023/01/24 00:46:21;;;;;;;23.17;12.15;;;4.70;64.70;;;-0.48;94.80;96417.22;4991548;28;20116;-47
2023/01/24 00:48:53;;;;;;;23.90;12.00;;;4.70;64.70;;;-0.46;94.74;96425.72;4995374;28;20468;-47
2023/01/24 00:51:19;;;;;;;20.43;11.30;;;4.70;64.70;;;-0.47;94.42;96417.06;5000107;28;20498;-50
2023/01/24 00:53:51;;;;;;;18.73;11.27;;;4.70;64.80;;;-0.46;94.42;96420.47;4995498;28;20025;-47
2023/01/24 00:56:20;;;;;;;20.90;10.70;;;4.70;64.70;;;-0.45;94.33;96432.56;5001448;28;20048;-48
2023/01/24 00:58:52;;;;;;;23.33;12.02;;;4.70;64.70;;;-0.43;94.61;96425.38;4989155;28;20022;-46
2023/01/24 01:01:18;;;;;;;20.43;10.63;;;4.70;64.70;;;-0.44;94.82;96430.75;4978448;28;20062;-46
2023/01/24 01:03:46;;;;;;;21.85;11.00;;;4.70;64.70;;;-0.44;94.63;96421.09;5000876;28;20523;-53
2023/01/24 01:06:21;;;;;;;18.73;10.05;;;4.70;64.70;;;-0.51;94.08;96430.66;5006437;28;20048;-46
2023/01/24 01:08:47;;;;;;;20.42;10.80;;;4.70;64.70;;;-0.42;94.52;96436.66;4994129;28;20021;-49
2023/01/24 01:11:16;;;;;;;18.77;10.35;;;4.70;64.70;;;-0.40;94.42;96435.50;4998001;28;20488;-48
2023/01/24 01:13:50;;;;;;;21.90;10.60;;;4.70;64.70;;;-0.42;93.96;96437.47;4982431;28;20121;-47
2023/01/24 01:16:20;;;;;;;18.95;10.13;;;4.70;64.70;;;-0.43;93.56;96438.47;5003624;28;20060;-46
2023/01/24 01:18:48;;;;;;;17.70;10.15;;;4.70;64.70;;;-0.39;93.95;96437.13;4992889;28;20055;-47
2023/01/24 01:21:20;;;;;;;19.67;10.13;;;4.70;64.60;;;-0.44;93.99;96441.25;4984246;28;20025;-48
2023/01/24 01:23:55;;;;;;;18.30;10.05;;;4.80;64.60;;;-0.38;93.52;96435.31;5012458;28;20049;-49
2023/01/24 01:26:22;;;;;;;18.20;9.85;;;4.80;64.70;;;-0.38;93.83;96451.00;5005909;28;20136;-47
2023/01/24 01:28:51;;;;;;;15.73;9.07;;;4.80;64.60;;;-0.40;93.34;96455.63;4998973;28;20025;-47
2023/01/24 01:31:17;;;;;;;16.70;9.80;;;4.70;64.60;;;-0.39;93.85;96454.63;4975293;28;20030;-50
2023/01/24 01:33:46;;;;;;;16.02;9.55;;;4.80;64.70;;;-0.40;93.72;96445.97;4978541;28;20095;-48
2023/01/24 01:36:21;;;;;;;15.60;8.77;;;4.70;64.60;;;-0.40;93.77;96440.72;4981507;28;20029;-47
2023/01/24 01:38:47;;;;;;;15.73;8.93;;;4.70;64.60;;;-0.37;93.61;96452.66;5003942;28;20029;-51
2023/01/24 01:41:16;;;;;;;20.92;10.20;;;4.80;64.60;;;-0.32;93.56;96461.59;4992313;28;20519;-49
2023/01/24 01:44:37;;;;;;;19.08;10.00;;;4.80;64.60;;;-0.36;93.41;96449.03;5004192;28;20017;-46
2023/01/24 01:46:53;;;;;;;16.33;9.60;;;4.80;64.60;;;-0.36;93.44;96449.84;4980629;28;20044;-49
2023/01/24 01:49:27;;;;;;;17.45;9.27;;;4.80;64.60;;;-0.37;93.52;96445.63;4981314;28;20045;-48
2023/01/24 01:52:06;;;;;;;18.73;9.68;;;4.80;64.60;;;-0.32;93.07;96448.50;4976378;28;20041;-47
2023/01/24 01:54:45;;;;;;;16.73;9.00;;;4.80;64.60;;;-0.34;93.34;96439.22;4983650;28;20021;-50
2023/01/24 01:57:28;;;;;;;17.40;9.30;;;4.80;64.50;;;-0.32;93.05;96453.75;4960736;28;20487;-47
2023/01/24 02:00:19;;;;;;;;;;;4.80;64.50;;;-0.35;93.13;96443.63;4973665;28;20385;-48
2023/01/24 02:03:37;;;;;;;17.00;8.80;;;4.80;64.50;;;-0.26;93.05;96460.91;4982083;28;20271;-47
2023/01/24 02:05:45;;;;;;;16.58;8.85;;;4.80;64.60;;;-0.28;92.77;96455.03;5013498;23;20001;-50
2023/01/24 02:08:20;;;;;;;17.60;9.15;;;4.80;64.50;;;-0.23;93.06;96459.75;4994007;28;20052;-50
2023/01/24 02:13:48;;;;;;;15.63;8.82;;;4.80;64.40;;;-0.33;93.15;96465.22;5031357;28;20036;-54
2023/01/24 02:16:16;;;;;;;17.33;9.35;;;4.80;64.40;;;-0.26;93.01;96473.19;4994700;28;20014;-57
2023/01/24 02:18:44;;;;;;;17.25;8.98;;;4.80;64.40;;;-0.37;93.31;96453.47;5010117;28;20031;-55
2023/01/24 02:21:17;;;;;;;13.93;8.55;;;4.80;64.40;;;-0.33;93.01;96461.78;4992693;28;20372;-53
2023/01/24 02:24:30;;;;;;;15.07;9.18;;;4.80;64.30;;;-0.30;92.93;96458.81;4991316;28;20075;-55
2023/01/24 02:26:59;;;;;;;17.35;8.68;;;4.80;64.30;;;-0.29;92.77;96466.50;4982022;28;20083;-56
2023/01/24 02:29:25;;;;;;;17.27;9.48;;;4.80;64.40;;;-0.25;92.31;96467.78;5000934;28;20341;-57
2023/01/24 02:32:07;;;;;;;12.55;7.00;;;4.80;64.40;;;-0.32;92.44;96468.66;5010920;28;20079;-56
2023/01/24 02:34:33;;;;;;;15.93;8.52;;;4.80;64.30;;;-0.28;92.89;96481.22;4983342;28;20025;-56
2023/01/24 02:37:13;;;;;;;15.57;8.00;;;4.80;64.30;;;-0.31;92.60;96483.38;5018181;28;20561;-55
2023/01/24 02:40:08;;;;;;;17.10;9.07;;;4.90;64.40;;;-0.28;92.88;96486.47;4972951;28;20462;-52
2023/01/24 02:42:41;;;;;;;18.73;9.10;;;4.90;64.30;;;-0.35;93.08;96476.84;4992980;28;20087;-56
2023/01/24 02:45:19;;;;;;;17.95;10.35;;;4.80;64.20;;;-0.28;92.74;96483.03;5001499;28;20052;-57
2023/01/24 02:47:51;;;;;;;16.60;9.68;;;4.90;64.30;;;-0.28;92.55;96483.03;5006355;28;20416;-51
2023/01/24 02:53:29;;;;;;;14.98;8.43;;;4.80;64.20;;;-0.34;93.02;96489.78;4990871;28;20032;-53
2023/01/24 02:53:30;;;;;;;17.52;9.75;;;4.80;64.30;;;-0.36;92.70;96483.09;4989863;28;20033;-54
2023/01/24 02:58:53;;;;;;;17.60;9.68;;;4.80;64.20;;;-0.34;93.21;96484.53;4977600;28;20075;-53
2023/01/24 03:01:22;;;;;;;16.05;9.30;;;4.80;64.30;;;-0.29;93.13;96481.38;5000922;28;20074;-55
2023/01/24 03:03:51;;;;;;;14.57;8.75;;;4.80;64.30;;;-0.37;92.71;96484.06;4993028;28;20079;-55
2023/01/24 03:06:18;;;;;;;19.83;10.00;;;4.80;64.20;;;-0.30;93.45;96491.06;4990567;28;20079;-54
2023/01/24 03:08:45;;;;;;;17.30;9.40;;;4.80;64.30;;;-0.34;93.05;96491.59;5006078;28;20375;-56
2023/01/24 03:11:11;;;;;;;19.42;9.52;;;4.80;64.20;;;-0.38;93.06;96480.63;4976434;28;20373;-53
2023/01/24 03:35:58;;;;;;;14.77;8.80;;;4.80;64.30;;;-0.34;93.52;96488.97;4986872;28;20562;-54
2023/01/24 03:41:09;;;;;;;14.45;8.45;;;4.80;64.30;;;-0.39;93.42;96493.91;5024440;28;20518;-55
2023/01/24 03:43:38;;;;;;;15.60;8.85;;;4.80;64.30;;;-0.39;93.14;96486.84;5012279;28;20022;-51
2023/01/24 03:46:04;;;;;;;15.43;8.85;;;4.80;64.30;;;-0.34;93.39;96491.59;5020222;28;20067;-51
2023/01/24 03:48:39;;;;;;;13.93;8.18;;;4.80;64.30;;;-0.32;93.32;96500.06;5010758;28;20034;-51
2023/01/24 03:53:53;;;;;;;15.32;9.02;;;4.80;64.40;;;-0.37;93.67;96513.69;4987587;28;20099;-54
2023/01/24 03:56:19;;;;;;;15.65;9.10;;;4.80;64.40;;;-0.35;94.07;96510.88;5004153;28;20476;-50
2023/01/24 03:58:53;;;;;;;16.42;8.80;;;4.80;65.10;;;-0.37;93.98;96508.44;4989867;28;20029;-52
2023/01/24 04:01:22;;;;;;;17.92;9.82;;;4.80;64.30;;;-0.32;93.98;96513.97;4985647;28;20120;-54
2023/01/24 04:03:48;;;;;;;14.02;7.95;;;4.80;64.30;;;-0.31;94.36;96513.00;5006185;28;20033;-51
2023/01/24 04:06:14;;;;;;;14.85;9.00;;;4.80;64.40;;;-0.26;94.14;96513.28;5007923;28;20045;-52
2023/01/24 04:08:39;;;;;;;17.08;9.18;;;4.80;64.40;;;-0.22;93.70;96518.97;5001942;28;20033;-53
2023/01/24 04:11:08;;;;;;;16.42;8.73;;;4.80;64.40;;;-0.26;93.78;96525.56;5011909;28;20032;-52
2023/01/24 04:13:37;;;;;;;16.35;9.13;;;4.90;64.40;;;-0.29;94.31;96518.84;4999564;28;20398;-52
2023/01/24 04:16:07;;;;;;;15.10;8.13;;;4.90;64.50;;;-0.33;94.36;96520.19;4974709;28;20029;-52
2023/01/24 04:18:36;;;;;;;17.05;9.40;;;4.90;64.40;;;-0.28;94.14;96520.50;4990247;28;20302;-55
2023/01/24 04:21:05;;;;;;;16.05;8.90;;;4.90;64.40;;;-0.33;94.33;96517.59;4976653;28;20123;-56
2023/01/24 04:23:34;;;;;;;16.05;9.20;;;4.90;64.40;;;-0.24;94.20;96524.41;4957411;28;20064;-57
2023/01/24 04:26:03;;;;;;;17.77;9.23;;;4.90;64.40;;;-0.25;94.21;96535.06;4983093;28;20487;-53
2023/01/24 04:28:35;;;;;;;15.82;9.45;;;4.90;64.50;;;-0.24;94.81;96532.25;5003061;28;20058;-55
2023/01/24 04:31:08;;;;;;;18.75;9.88;;;4.90;64.40;;;-0.24;94.36;96524.41;4973346;28;20032;-51
2023/01/24 04:33:37;;;;;;;15.52;9.50;;;4.90;64.40;;;-0.25;94.52;96528.00;4980204;28;20033;-52
2023/01/24 04:36:09;;;;;;;14.00;8.65;;;4.90;64.50;;;-0.24;94.60;96521.78;5011263;28;20081;-52
2023/01/24 04:38:35;;;;;;;15.65;9.10;;;4.90;64.50;;;-0.18;94.82;96529.94;5000931;28;20029;-54
2023/01/24 04:41:01;;;;;;;15.50;9.18;;;4.90;64.50;;;-0.19;94.59;96529.09;4967952;28;20025;-54
2023/01/24 04:43:28;;;;;;;16.83;9.20;;;4.90;64.50;;;-0.28;94.94;96527.56;4945079;28;20049;-54
2023/01/24 04:46:16;;;;;;;15.38;9.18;;;4.90;64.50;;;-0.29;94.90;96533.75;4969560;28;20075;-57
2023/01/24 04:48:42;;;;;;;15.55;9.10;;;4.90;64.50;;;-0.25;95.05;96527.19;4995845;28;20497;-57
2023/01/24 04:51:09;;;;;;;17.27;8.80;;;4.90;64.50;;;-0.30;95.28;96532.13;4985157;28;20029;-55
2023/01/24 04:53:40;;;;;;;14.73;8.90;;;4.90;64.50;;;-0.33;94.95;96530.66;4993602;28;20543;-57
2023/01/24 04:56:07;;;;;;;16.40;9.18;;;4.90;64.60;;;-0.22;94.98;96531.25;5005147;28;20388;-56
2023/01/24 04:58:40;;;;;;;15.07;8.55;;;4.90;64.60;;;-0.25;95.02;96541.09;5004894;28;20463;-56
2023/01/24 05:01:06;;;;;;;;;;;4.90;64.70;;;-0.19;94.86;96544.00;5006817;28;20387;-53
2023/01/24 05:03:38;;;;;;;12.68;8.15;;;4.90;64.60;;;-0.15;94.65;96537.44;5001712;28;19905;-53
2023/01/24 05:06:04;;;;;;;16.25;9.77;;;4.90;64.70;;;-0.19;94.92;96533.53;5002948;28;20048;-56
2023/01/24 05:08:30;;;;;;;16.98;8.90;;;4.90;64.60;;;-0.18;94.88;96549.09;4990475;28;20114;-56
2023/01/24 05:11:02;;;;;;;14.25;8.68;;;4.90;64.60;;;-0.26;95.05;96544.69;5019738;28;20048;-54
2023/01/24 05:13:37;;;;;;;16.17;9.45;;;4.90;64.60;;;-0.27;94.89;96543.06;4985706;28;20124;-58
2023/01/24 05:16:07;;;;;;;15.43;8.90;;;4.90;64.60;;;-0.22;94.99;96544.34;5004827;28;20024;-57
2023/01/24 05:18:32;;;;;;;14.95;9.05;;;4.90;64.60;;;-0.26;95.40;96547.31;5031484;28;20060;-51
2023/01/24 05:21:15;;;;;;;15.45;9.23;;;4.90;64.60;;;-0.25;95.28;96554.19;5012174;28;20064;-51
2023/01/24 05:23:42;;;;;;;16.08;8.65;;;4.90;64.60;;;-0.22;95.08;96560.06;4984285;28;20365;-57
2023/01/24 05:26:09;;;;;;;13.70;8.82;;;4.90;64.70;;;-0.15;95.02;96559.22;5012025;28;20025;-52
2023/01/24 05:28:36;;;;;;;13.68;8.63;;;4.90;64.70;;;-0.17;95.00;96558.56;5000153;28;20049;-49
2023/01/24 05:31:09;;;;;;;17.48;9.55;;;4.90;64.70;;;-0.19;95.07;96565.75;4973981;28;20022;-50
2023/01/24 05:33:36;;;;;;;16.25;9.55;;;4.90;64.70;;;-0.18;94.89;96562.19;5012018;28;20029;-49
2023/01/24 05:36:11;;;;;;;19.00;9.73;;;4.90;64.70;;;-0.21;95.08;96564.34;5017000;28;20404;-51
2023/01/24 05:38:38;;;;;;;17.08;9.10;;;5.00;64.70;;;-0.19;95.32;96564.94;4984577;28;20477;-50
2023/01/24 05:41:10;;;;;;;15.38;9.60;;;4.90;64.60;;;-0.20;95.11;96566.75;5002054;28;20108;-49
2023/01/24 05:43:38;;;;;;;16.83;9.70;;;4.90;64.70;;;-0.17;95.39;96565.59;5012902;28;20467;-49
2023/01/24 05:46:13;;;;;;;13.95;8.52;;;5.00;64.70;;;-0.21;95.38;96559.91;4988190;28;20055;-52
2023/01/24 05:48:39;;;;;;;14.10;8.70;;;4.90;64.70;;;-0.21;95.28;96565.13;4990991;28;20068;-51
2023/01/24 05:51:16;;;;;;;13.45;8.98;;;4.90;64.70;;;-0.24;96.00;96576.78;5005804;28;20026;-52
2023/01/24 05:53:44;;;;;;;16.70;9.30;;;4.90;64.70;;;-0.21;95.65;96577.44;4996621;28;20131;-51
2023/01/24 05:56:31;;;;;;;15.93;9.13;;;4.90;64.70;;;-0.19;95.77;96575.44;5008333;28;20036;-54
2023/01/24 05:58:58;;;;;;;15.02;8.57;;;4.90;64.70;;;-0.21;95.34;96572.19;5006874;28;20024;-49
2023/01/24 06:01:26;;;;;;;17.60;9.88;;;4.90;64.80;;;-0.23;95.21;96582.81;5011608;28;20029;-54
2023/01/24 06:03:53;;;;;;;15.40;9.07;;;4.90;64.70;;;-0.19;95.53;96591.94;5002396;28;20060;-50
2023/01/24 06:06:28;;;;;;;16.75;10.20;;;4.90;64.80;;;-0.20;94.89;96594.75;5009766;28;20045;-50
2023/01/24 06:08:54;;;;;;;17.25;9.23;;;4.90;64.80;;;-0.19;95.75;96605.03;4986924;28;20502;-52
2023/01/24 06:11:25;;;;;;;15.23;9.10;;;4.90;64.80;;;-0.14;94.98;96599.31;4944985;28;20038;-50
2023/01/24 06:13:55;;;;;;;15.35;9.02;;;4.90;64.90;;;-0.11;95.01;96614.69;4963232;28;20032;-50
2023/01/24 06:16:26;;;;;;;14.90;8.85;;;5.00;64.90;;;-0.15;95.23;96608.97;5002191;28;20124;-52
2023/01/24 06:18:55;;;;;;;14.73;9.05;;;5.00;64.90;;;-0.11;95.24;96614.69;4991729;28;20538;-49
2023/01/24 06:21:47;;;;;;;17.13;9.43;;;5.00;64.90;;;-0.11;95.19;96618.09;4989795;28;20468;-49
2023/01/24 06:24:23;;;;;;;13.55;8.68;;;5.00;64.80;;;-0.10;94.80;96626.78;4984273;28;20036;-50
2023/01/24 06:26:51;;;;;;;14.25;8.95;;;5.00;64.90;;;-0.13;94.85;96627.13;4984169;28;20092;-51
2023/01/24 06:29:20;;;;;;;15.60;9.05;;;5.00;64.90;;;-0.16;94.91;96622.22;4983938;28;20563;-50
2023/01/24 06:32:10;;;;;;;14.27;8.38;;;5.00;64.80;;;-0.08;94.40;96627.44;4979668;28;20049;-51
2023/01/24 06:35:28;;;;;;;15.40;8.93;;;5.00;64.80;;;-0.09;94.41;96621.38;4986086;28;20052;-50
2023/01/24 06:37:54;;;;;;;13.60;8.10;;;5.00;64.70;;;-0.09;94.48;96628.44;4954710;28;20530;-50
2023/01/24 06:40:24;;;;;;;15.98;9.30;;;5.00;64.80;;;-0.09;94.12;96623.19;4989206;28;20513;-52
2023/01/24 06:42:52;;;;;;;15.15;8.93;;;5.00;64.80;;;-0.08;94.28;96630.06;4987210;28;20116;-49
2023/01/24 06:45:20;;;;;;;16.42;9.35;;;5.00;64.80;;;-0.10;93.65;96630.22;4995415;28;20021;-51
2023/01/24 06:47:46;;;;;;;16.20;9.50;;;5.00;64.80;;;-0.10;93.73;96638.06;4998951;28;20060;-50
2023/01/24 06:50:22;;;;;;;17.23;9.70;;;5.00;64.70;;;-0.11;93.98;96640.88;5003469;28;20032;-52
2023/01/24 06:52:52;;;;;;;14.57;8.98;;;5.00;64.60;;;-0.21;93.62;96646.31;4981335;28;20083;-53
2023/01/24 06:55:18;;;;;;;17.17;8.65;;;5.00;64.60;;;-0.25;93.95;96653.72;4995747;28;20499;-49
2023/01/24 06:57:46;;;;;;;17.73;9.45;;;5.00;64.60;;;-0.18;93.88;96651.22;4981080;28;20025;-50
2023/01/24 07:00:13;;;;;;;16.13;9.25;;;5.00;64.60;;;-0.21;93.53;96656.00;4975776;28;20057;-50
2023/01/24 07:02:39;;;;;;;17.58;9.35;;;5.00;64.60;;;-0.25;93.78;96656.34;4972517;28;20025;-51
2023/01/24 07:05:06;;;;;;;14.80;8.95;;;4.90;64.50;;;-0.29;94.18;96665.50;4949890;28;20083;-49
2023/01/24 07:07:31;;;;;;;15.70;9.38;;;4.90;64.50;;;-0.25;93.31;96660.75;4985712;28;20045;-51
2023/01/24 07:09:57;;;;;;;13.93;8.02;;;5.00;64.60;;;-0.30;92.77;96670.91;4973196;28;20428;-51
2023/01/24 07:12:23;;;;;;;15.30;9.05;;;4.90;64.50;;;-0.25;93.33;96666.81;4999905;28;20469;-49
2023/01/24 07:14:49;;;;;;;15.63;9.20;;;4.90;64.50;;;-0.26;93.40;96675.63;4992056;28;20021;-51
2023/01/24 07:17:15;;;;;;;16.70;9.57;;;4.90;64.50;;;-0.21;92.99;96679.56;4977694;28;20083;-50
2023/01/24 07:19:42;;;;;;;15.27;9.02;;;4.90;64.50;;;-0.25;92.81;96679.91;4987327;28;20039;-53
2023/01/24 07:22:13;;;;;;;14.50;8.30;;;4.90;64.50;;;-0.26;92.24;96675.63;4961657;28;20029;-53
2023/01/24 07:24:41;;;;;;;14.40;8.75;;;4.90;64.40;;;-0.19;92.39;96685.41;4963523;28;20052;-55
2023/01/24 07:27:11;;;;;;;15.20;8.70;;;5.00;64.50;;;-0.18;92.16;96689.69;5011346;28;20070;-52
2023/01/24 07:29:37;;;;;;;13.43;8.05;;;5.00;64.50;;;-0.19;92.33;96693.28;5003949;28;20422;-53
2023/01/24 07:32:03;;;;;;;14.20;8.65;;;5.00;64.40;;;-0.17;91.96;96697.38;5026883;28;20029;-51
2023/01/24 07:34:29;;;;;;;18.23;9.38;;;5.00;64.40;;;-0.20;91.79;96697.72;5003071;28;20021;-50
2023/01/24 07:36:55;;;;;;;16.13;9.38;;;5.00;64.40;;;-0.22;91.55;96693.63;5017705;28;20043;-50
2023/01/24 07:39:21;;;;;;;15.60;8.88;;;5.00;64.30;;;-0.16;92.01;96691.13;4986321;28;20013;-52
2023/01/24 07:41:50;;;;;;;13.95;8.43;;;5.00;64.30;;;-0.19;90.91;96698.50;5009983;28;20497;-51
2023/01/24 07:44:19;;;;;;;16.15;9.52;;;5.10;64.20;;;-0.20;91.69;96702.94;4993073;28;20104;-54
2023/01/24 07:46:45;;;;;;;14.20;8.90;;;5.10;64.10;;;-0.24;91.37;96707.72;4984669;28;20499;-52
2023/01/24 07:49:11;;;;;;;16.20;9.05;;;5.10;64.10;;;-0.17;91.15;96712.28;4983319;28;20036;-53
2023/01/24 07:51:37;;;;;;;15.35;8.80;;;5.10;64.00;;;-0.20;91.22;96712.59;5008497;28;20017;-52
2023/01/24 07:54:05;;;;;;;17.13;9.30;;;5.10;63.90;;;-0.21;90.55;96700.50;5001616;28;20025;-50
2023/01/24 07:56:31;;;;;;;15.20;8.70;;;5.10;63.90;;;-0.24;90.33;96701.66;5003201;28;20053;-49
2023/01/24 07:58:58;;;;;;;14.57;8.77;;;5.10;63.80;;;-0.19;90.44;96712.41;5000684;28;20534;-54
2023/01/24 08:01:26;;;;;;;14.40;8.95;;;5.10;63.70;;;-0.15;90.65;96712.94;4992392;28;20033;-50
2023/01/24 08:04:04;;;;;;;16.65;9.30;;;5.20;63.70;;;-0.17;90.11;96720.94;5005286;28;20095;-52
2023/01/24 08:06:30;;;;;;;16.48;8.90;;;5.20;63.60;;;-0.16;90.07;96721.75;5000706;28;20061;-51
2023/01/24 08:08:56;;;;;;;17.25;8.65;;;5.20;63.60;;;-0.11;90.18;96727.31;4983499;28;20033;-53
2023/01/24 08:11:28;;;;;;;15.55;8.70;;;5.20;63.60;;;-0.06;90.12;96731.06;4976140;28;20036;-50
2023/01/24 08:13:59;;;;;;;15.80;9.52;;;5.30;63.60;;;-0.01;89.60;96725.28;5001438;28;20164;-50
2023/01/24 08:16:28;;;;;;;19.33;9.13;;;5.30;63.50;;;0.00;88.86;96729.56;5009540;28;20036;-53
2023/01/24 08:18:56;;;;;;;16.40;8.65;;;5.30;63.40;;;0.03;88.44;96725.75;5027316;28;20115;-50
2023/01/24 08:21:22;;;;;;;16.85;9.52;;;5.40;63.30;;;0.01;88.62;96728.56;5006411;28;20562;-51
2023/01/24 08:23:48;;;;;;;13.52;9.00;;;5.40;63.20;;;0.04;88.34;96735.28;4973367;28;20030;-49
2023/01/24 08:26:19;;;;;;;17.63;9.50;;;5.40;63.10;;;0.08;87.85;96740.00;5009145;28;20074;-50
2023/01/24 08:28:48;;;;;;;14.20;8.70;;;5.50;63.10;;;0.16;87.94;96745.22;4981465;28;20048;-52
2023/01/24 08:31:20;;;;;;;14.38;8.85;;;5.50;62.90;;;0.10;87.50;96743.28;4999450;28;20032;-51
2023/01/24 08:33:46;;;;;;;16.40;8.45;;;5.60;62.90;;;0.12;86.64;96748.31;4979859;28;20380;-51
2023/01/24 08:36:12;;;;;;;15.32;8.23;;;5.60;62.80;;;0.19;86.45;96754.53;5020638;28;20021;-51
2023/01/24 08:38:38;;;;;;;14.95;8.70;;;5.60;62.60;;;0.09;85.62;96749.47;5023681;28;20025;-50
2023/01/24 08:41:07;;;;;;;14.95;8.57;;;5.70;62.50;;;0.11;86.22;96749.31;5017390;28;20030;-51
2023/01/24 08:44:04;;;;;;;16.70;9.52;;;5.70;62.40;;;0.25;86.22;96755.63;5009230;28;20040;-52
2023/01/24 08:46:49;;;;;;;14.05;8.70;;;5.70;62.30;;;0.30;86.19;96754.16;4976881;28;20063;-50
2023/01/24 08:49:18;;;;;;;14.65;8.93;;;5.70;62.30;;;0.33;86.34;96761.66;5016294;28;20045;-50
2023/01/24 08:51:44;;;;;;;13.43;8.05;;;5.80;62.30;;;0.29;85.93;96764.81;4989884;28;20026;-49
2023/01/24 08:54:15;;;;;;;15.48;8.23;;;5.80;62.20;;;0.26;85.59;96762.53;5027388;28;20120;-50
2023/01/24 08:56:41;;;;;;;13.40;8.32;;;5.90;62.10;;;0.29;85.17;96767.44;4988094;28;20037;-51
2023/01/24 08:59:07;;;;;;;14.90;8.38;;;5.90;62.00;;;0.32;85.13;96769.72;5008538;28;20025;-52
2023/01/24 09:01:42;;;;;;;13.82;7.88;;;5.90;61.80;;;0.29;84.31;96767.44;5003371;28;20037;-53
2023/01/24 09:04:13;;;;;;;14.18;8.27;;;6.00;61.70;;;0.18;84.01;96766.81;4980678;28;20104;-50
2023/01/24 09:06:39;;;;;;;15.93;8.50;;;6.00;61.60;;;0.12;84.61;96774.53;4984711;28;20045;-52
2023/01/24 09:09:05;;;;;;;16.90;8.85;;;6.00;61.40;;;0.14;84.53;96770.75;4982792;28;20025;-52
2023/01/24 09:11:32;;;;;;;14.50;8.43;;;6.00;61.30;;;0.08;83.57;96775.88;4982789;28;20025;-52
2023/01/24 09:14:01;;;;;;;13.88;8.45;;;6.00;61.20;;;0.10;85.28;96776.53;4998190;28;20100;-52
2023/01/24 09:16:27;;;;;;;15.60;8.93;;;6.00;61.00;;;0.17;83.79;96775.66;4975528;28;20029;-51
2023/01/24 09:18:59;;;;;;;15.18;8.52;;;6.00;61.00;;;0.19;84.55;96776.31;4965657;28;25027;-54
2023/01/24 09:21:25;;;;;;;14.77;8.63;;;6.00;60.90;;;0.34;83.73;96781.63;4982117;28;20108;-49
2023/01/24 09:23:54;;;;;;;13.73;8.38;;;6.00;60.90;;;0.38;83.41;96790.81;4973991;28;20535;-52
2023/01/24 09:26:21;;;;;;;15.43;9.10;;;6.10;60.90;;;0.52;83.67;96780.59;4986222;28;20544;-54
2023/01/24 09:28:50;;;;;;;16.38;9.75;;;6.10;60.80;;;0.55;83.04;96786.28;4977378;28;20033;-51
2023/01/24 09:31:19;;;;;;;16.63;8.85;;;6.20;60.70;;;0.57;82.99;96784.34;4994324;28;20082;-50
2023/01/24 09:33:45;;;;;;;16.83;9.35;;;6.30;60.70;;;0.65;83.10;96786.06;5025044;28;20033;-51
2023/01/24 09:36:11;;;;;;;18.02;9.95;;;6.30;60.50;;;0.75;82.70;96796.34;5015493;28;20482;-51
2023/01/24 09:38:37;;;;;;;16.48;9.15;;;6.40;60.50;;;0.77;82.59;96795.19;4988691;28;20064;-51
2023/01/24 09:41:50;;;;;;;13.15;8.32;;;6.50;60.40;;;0.74;82.56;96799.97;4986694;28;20558;-50
2023/01/24 09:44:53;;;;;;;16.23;8.85;;;6.60;60.10;;;0.76;81.86;96796.19;4997994;28;20032;-50
2023/01/24 09:47:56;;;;;;;15.02;8.65;;;6.60;60.00;;;0.68;81.74;96794.41;5022466;28;20056;-50
2023/01/24 09:50:57;;;;;;;13.23;7.55;;;6.70;59.90;;;0.69;82.66;96793.44;4976504;28;20510;-51
2023/01/24 09:53:50;;;;;;;13.98;8.43;;;6.60;59.70;;;0.81;82.16;96785.97;5009535;28;20039;-50
2023/01/24 09:56:44;;;;;;;14.05;7.95;;;6.60;59.70;;;0.77;82.28;96797.00;5010846;28;20025;-50
2023/01/24 09:59:26;;;;;;;16.85;10.13;;;6.60;59.80;;;0.69;82.38;96790.81;5009113;28;20382;-50
2023/01/24 10:01:52;;;;;;;19.45;10.73;;;6.50;59.70;;;0.64;83.03;96795.75;4996191;28;20510;-55
2023/01/24 10:04:36;;;;;;;15.10;9.20;;;6.50;59.80;;;0.73;82.74;96791.28;5014294;28;20036;-54
2023/01/24 10:07:55;;;;;;;16.27;8.80;;;6.50;59.80;;;0.79;82.40;96795.03;4992265;28;20048;-55
2023/01/24 10:10:53;;;;;;;17.13;8.77;;;6.50;59.80;;;0.74;82.44;96792.91;4982871;28;20017;-52
2023/01/24 10:13:41;;;;;;;14.07;8.57;;;6.50;59.80;;;0.62;82.40;96792.47;4990242;28;20627;-50
2023/01/24 10:17:26;;;;;;;13.65;8.18;;;6.40;59.80;;;0.69;83.20;96798.69;4979183;28;20039;-53
2023/01/24 10:20:17;;;;;;;14.13;8.52;;;6.50;59.70;;;0.68;83.15;96799.66;4980145;28;20152;-52
2023/01/24 10:23:40;;;;;;;13.98;7.82;;;6.50;59.80;;;0.76;82.62;96798.81;5011345;28;20029;-51
2023/01/24 10:26:38;;;;;;;12.63;7.85;;;6.50;59.70;;;0.63;82.80;96799.38;5029326;28;20043;-50
2023/01/24 10:29:21;;;;;;;13.55;7.85;;;6.50;59.70;;;0.60;83.57;96796.28;4999492;28;20040;-52
2023/01/24 10:32:16;;;;;;;11.80;7.57;;;6.50;59.70;;;0.72;83.55;96805.38;5010524;28;20021;-54
2023/01/24 10:34:49;;;;;;;13.50;7.63;;;6.50;59.60;;;0.81;83.18;96803.53;4985735;28;20025;-50
2023/01/24 10:37:20;;;;;;;13.25;7.75;;;6.50;59.70;;;0.83;82.76;96801.56;4970572;28;20025;-50
2023/01/24 10:39:47;;;;;;;12.43;8.05;;;6.50;59.70;;;0.87;83.03;96805.47;4989667;28;20403;-51
2023/01/24 10:42:30;;;;;;;12.68;7.40;;;6.60;59.60;;;0.81;82.09;96801.72;4986914;28;20537;-51
2023/01/24 10:45:30;;;;;;;11.43;7.30;;;6.80;59.40;;;0.93;83.03;96800.31;5017736;28;20055;-50
2023/01/24 10:48:06;;;;;;;14.95;8.02;;;6.80;59.40;;;1.04;81.97;96804.38;4942256;28;20448;-52
2023/01/24 10:50:45;;;;;;;12.60;7.65;;;6.90;59.40;;;1.11;82.08;96801.84;4983278;28;20648;-53
2023/01/24 10:53:27;;;;;;;12.20;7.82;;;6.90;59.20;;;1.05;82.33;96790.25;4995864;28;20483;-56
2023/01/24 10:56:04;;;;;;;14.07;8.00;;;7.00;59.20;;;1.10;82.72;96789.75;4996927;28;20019;-55
2023/01/24 10:58:40;;;;;;;13.15;7.85;;;7.10;59.00;;;1.15;82.01;96793.44;4978429;28;20401;-54
2023/01/24 11:01:19;;;;;;;13.00;8.10;;;7.30;58.90;;;1.18;82.14;96792.28;4986733;28;20083;-55
2023/01/24 11:03:52;;;;;;;12.13;7.43;;;7.30;58.80;;;1.31;82.01;96789.06;4966253;28;20017;-56
2023/01/24 11:06:39;;;;;;;10.95;7.05;;;7.40;58.70;;;1.39;81.12;96789.81;4996300;28;20036;-54
2023/01/24 11:09:16;;;;;;;11.70;7.40;;;7.50;58.60;;;1.38;81.76;96787.38;4983750;28;20021;-56
2023/01/24 11:11:52;;;;;;;14.48;8.43;;;7.50;58.60;;;1.40;81.25;96790.63;4972941;28;20025;-53
2023/01/24 11:14:37;;;;;;;14.82;7.63;;;7.50;58.50;;;1.22;81.57;96782.25;4967665;28;20036;-54
2023/01/24 11:17:07;;;;;;;12.98;7.72;;;7.50;58.40;;;1.35;81.87;96779.88;4965258;28;21950;-52
2023/01/24 11:19:39;;;;;;;13.35;8.15;;;7.40;58.40;;;1.26;82.09;96767.78;4970395;28;20020;-50